Time;durP1;ratioP1;P1;durP2;ratioP2;P2;SDS_P1;SDS_P2;PMS_P1;PMS_P2;Temp;Humidity;BMP_temperature;BMP_pressure;BME280_temperature;BME280_humidity;BME280_pressure;Samples;Min_cycle;Max_cycle;Signal;HPM_P1;HPM_P2
2023/10/19 00:03:18;;;;;;;14.13;11.87;;;;;;;13.22;52.50;98244.72;10519230;28;20234;-65
2023/10/19 00:08:21;;;;;;;18.13;14.53;;;;;;;12.44;54.88;98194.00;10511859;28;20226;-65
2023/10/19 00:13:22;;;;;;;18.77;14.13;;;;;;;11.42;57.00;98221.84;10522548;28;20249;-66
2023/10/19 00:18:24;;;;;;;26.40;18.63;;;;;;;11.14;58.13;98214.44;10520547;28;20223;-65
2023/10/19 00:23:30;;;;;;;19.63;15.33;;;;;;;13.20;53.56;98110.69;10501014;28;20245;-66
2023/10/19 00:28:35;;;;;;;16.93;13.73;;;;;;;11.07;58.23;98160.97;10520341;28;20324;-66
2023/10/19 00:33:40;;;;;;;16.67;12.77;;;;;;;12.32;56.03;98126.16;10523839;28;20280;-66
2023/10/19 00:44:03;;;;;;;16.50;12.77;;;;;;;12.13;56.26;98145.09;10520347;28;20324;-67
2023/10/19 00:49:06;;;;;;;15.97;12.73;;;;;;;12.79;55.14;98080.44;10515135;28;20222;-66
2023/10/19 00:54:26;;;;;;;16.97;13.33;;;;;;;12.46;56.09;98119.47;10483892;28;20594;-66
2023/10/19 00:59:35;;;;;;;20.30;13.83;;;;;;;12.51;55.74;98137.56;10522015;28;20613;-66
2023/10/19 01:04:40;;;;;;;18.60;13.80;;;;;;;12.84;55.21;98101.16;10522340;28;20239;-66
2023/10/19 01:09:44;;;;;;;17.27;13.20;;;;;;;12.87;55.20;98085.41;10501979;28;20222;-66
2023/10/19 01:15:00;;;;;;;15.77;12.20;;;;;;;13.94;54.54;98004.84;10494967;28;20284;-66
2023/10/19 01:20:11;;;;;;;17.63;13.20;;;;;;;12.24;57.83;98119.28;10518027;28;20640;-67
2023/10/19 01:25:20;;;;;;;15.37;12.20;;;;;;;13.48;55.27;98023.84;10490727;28;20235;-66
2023/10/19 01:30:22;;;;;;;16.40;12.23;;;;;;;13.24;55.32;98087.63;10512573;28;20628;-66
2023/10/19 01:35:23;;;;;;;14.87;11.53;;;;;;;13.40;54.59;98101.38;10516272;28;20604;-66
2023/10/19 01:40:29;;;;;;;15.63;12.00;;;;;;;13.19;55.44;98084.06;10512802;28;20233;-67
2023/10/19 01:45:35;;;;;;;15.13;12.90;;;;;;;14.03;53.60;98016.78;10508254;28;20622;-66
2023/10/19 01:50:39;;;;;;;19.43;12.40;;;;;;;12.69;57.22;98074.88;10495529;28;20334;-64
2023/10/19 01:55:43;;;;;;;17.17;13.10;;;;;;;12.51;57.76;98094.66;10473687;28;20512;-64
2023/10/19 02:00:45;;;;;;;15.40;12.67;;;;;;;12.94;56.33;98066.47;10478747;28;20230;-66
2023/10/19 02:05:49;;;;;;;16.43;12.93;;;;;;;12.76;57.25;98097.00;10492771;28;20235;-66
2023/10/19 02:10:51;;;;;;;19.00;12.80;;;;;;;13.25;56.29;98029.38;10510852;28;20223;-64
2023/10/19 02:15:53;;;;;;;18.90;13.10;;;;;;;14.03;53.87;98014.09;10507025;28;20230;-64
2023/10/19 02:20:56;;;;;;;15.87;12.33;;;;;;;13.65;54.82;98031.88;10505648;28;20331;-66
2023/10/19 02:25:58;;;;;;;17.37;12.97;;;;;;;14.17;54.18;97992.22;10471856;28;20711;-64
2023/10/19 02:31:11;;;;;;;18.63;13.07;;;;;;;14.00;54.98;97998.47;10488779;28;20675;-64
2023/10/19 02:36:15;;;;;;;18.13;13.13;;;;;;;13.95;54.04;98054.06;10473157;28;20749;-67
2023/10/19 02:41:19;;;;;;;20.57;13.37;;;;;;;14.30;54.64;97991.03;10474285;28;20214;-64
2023/10/19 02:46:21;;;;;;;15.30;11.90;;;;;;;13.62;55.10;98078.06;10454640;28;20239;-64
2023/10/19 02:51:23;;;;;;;17.00;12.40;;;;;;;13.04;57.72;98055.06;10480717;28;20234;-64
2023/10/19 02:56:24;;;;;;;18.20;12.63;;;;;;;12.37;58.64;98116.34;10513237;28;20825;-64
2023/10/19 03:01:29;;;;;;;17.27;12.23;;;;;;;12.98;57.94;98026.53;10495687;28;20227;-66
2023/10/19 03:06:32;;;;;;;16.13;11.67;;;;;;;13.33;57.40;98004.00;10510431;28;20418;-66
2023/10/19 03:11:35;;;;;;;13.47;11.17;;;;;;;13.61;56.36;97977.00;10502560;28;20318;-66
2023/10/19 03:16:37;;;;;;;16.77;11.90;;;;;;;13.50;56.33;98012.88;10498462;28;20921;-67
2023/10/19 03:21:42;;;;;;;16.67;11.37;;;;;;;13.92;55.74;97958.59;10501284;28;20226;-66
2023/10/19 03:26:48;;;;;;;18.00;10.87;;;;;;;13.25;56.73;98034.75;10505710;28;20242;-67
2023/10/19 03:31:50;;;;;;;14.90;10.97;;;;;;;13.63;56.63;97969.50;10514470;28;20226;-66
2023/10/19 03:36:52;;;;;;;15.63;11.00;;;;;;;13.30;56.11;98072.47;10512868;28;20222;-66
2023/10/19 03:41:54;;;;;;;13.60;9.93;;;;;;;13.95;55.12;98000.28;10494088;28;20235;-66
2023/10/19 03:47:03;;;;;;;17.20;10.10;;;;;;;15.14;53.81;97892.69;10500244;28;20325;-66
2023/10/19 03:57:13;;;;;;;13.07;9.80;;;;;;;13.97;55.42;98003.53;10522172;28;20729;-65
2023/10/19 04:02:20;;;;;;;15.37;9.87;;;;;;;14.01;55.51;98004.66;10518496;28;20264;-65
2023/10/19 04:07:25;;;;;;;12.70;9.53;;;;;;;14.31;54.75;97996.16;10498174;28;20724;-66
2023/10/19 04:12:30;;;;;;;13.47;10.77;;;;;;;13.43;55.75;98058.72;10520821;28;20248;-66
2023/10/19 04:17:33;;;;;;;14.10;9.70;;;;;;;13.69;55.90;98029.53;10505341;28;20233;-66
2023/10/19 04:22:35;;;;;;;13.83;10.10;;;;;;;14.49;54.27;97969.97;10521422;28;20230;-66
2023/10/19 04:27:37;;;;;;;14.30;9.30;;;;;;;14.95;53.25;97955.06;10522461;28;20239;-66
2023/10/19 04:32:39;;;;;;;11.70;8.90;;;;;;;13.89;54.42;98090.00;10522114;28;20317;-66
2023/10/19 04:37:42;;;;;;;11.00;8.83;;;;;;;14.56;52.40;98025.22;10503179;28;20284;-66
2023/10/19 04:42:45;;;;;;;14.70;9.70;;;;;;;12.83;56.61;98113.78;10521569;28;20238;-66
2023/10/19 04:47:52;;;;;;;12.90;9.60;;;;;;;13.32;56.15;97997.00;10498064;28;20321;-66
2023/10/19 04:52:54;;;;;;;12.60;9.50;;;;;;;13.55;55.52;97963.72;10520454;28;20269;-66
2023/10/19 04:57:56;;;;;;;12.47;9.63;;;;;;;13.88;55.43;97970.09;10520384;28;20273;-66
2023/10/19 05:05:16;;;;;;;12.13;9.73;;;;;;;21.17;41.36;97922.25;10275389;28;20389;-66
2023/10/19 05:10:19;;;;;;;14.17;11.00;;;;;;;21.22;40.93;97970.28;10257153;28;20289;-66
2023/10/19 05:15:21;;;;;;;12.47;9.13;;;;;;;20.71;41.05;98012.69;10255438;28;20231;-66
2023/10/19 05:20:23;;;;;;;12.37;9.90;;;;;;;21.21;40.27;98021.16;10259820;28;20636;-66
2023/10/19 05:25:25;;;;;;;11.03;8.97;;;;;;;20.07;41.36;98047.47;10286726;28;20325;-66
2023/10/19 05:30:27;;;;;;;11.57;9.80;;;;;;;20.44;41.29;98018.78;10296950;28;20267;-65
2023/10/19 05:35:30;;;;;;;13.97;9.83;;;;;;;18.89;43.71;98032.28;10301752;28;20265;-66
2023/10/19 05:40:31;;;;;;;13.10;9.67;;;;;;;20.84;40.54;97984.00;10299852;28;20223;-68
2023/10/19 05:45:36;;;;;;;12.63;9.63;;;;;;;20.22;41.45;97984.06;10295720;28;20681;-66
2023/10/19 05:50:39;;;;;;;12.70;9.47;;;;;;;20.66;40.61;97964.66;10282930;28;20255;-66
2023/10/19 05:55:41;;;;;;;13.87;9.73;;;;;;;19.63;41.62;98040.38;10280855;28;20321;-66
2023/10/19 06:00:43;;;;;;;13.47;9.30;;;;;;;20.38;40.06;98017.25;10282302;28;20248;-66
2023/10/19 06:05:45;;;;;;;13.63;10.57;;;;;;;19.69;41.42;97998.53;10282977;28;20254;-66
2023/10/19 06:10:51;;;;;;;12.13;9.83;;;;;;;17.75;45.29;97963.53;10285254;28;20317;-66
2023/10/19 06:15:53;;;;;;;13.83;10.13;;;;;;;17.77;45.35;97934.34;10259367;28;20737;-66
2023/10/19 06:20:55;;;;;;;12.93;9.80;;;;;;;17.23;45.98;97944.72;10254110;28;20235;-67
2023/10/19 06:25:57;;;;;;;12.37;9.40;;;;;;;18.55;43.85;97873.25;10254016;28;20775;-66
2023/10/19 06:30:59;;;;;;;9.73;8.40;;;;;;;20.43;40.52;97908.50;10255784;28;20780;-66
2023/10/19 06:36:03;;;;;;;11.87;7.87;;;;;;;19.47;41.51;97977.28;10258417;28;20251;-66
2023/10/19 06:41:14;;;;;;;12.53;8.60;;;;;;;20.19;41.05;97914.03;10266164;28;20231;-66
2023/10/19 06:46:16;;;;;;;15.37;10.97;;;;;;;20.33;40.19;97952.13;10267174;28;20224;-66
2023/10/19 06:51:17;;;;;;;12.63;8.77;;;;;;;21.16;39.10;97920.63;10250897;28;20226;-66
2023/10/19 06:56:19;;;;;;;13.00;7.93;;;;;;;21.14;39.13;97925.56;10250309;28;20288;-65
2023/10/19 07:01:26;;;;;;;20.87;8.53;;;;;;;20.21;40.18;97923.53;10249496;28;20275;-66
2023/10/19 07:06:28;;;;;;;9.47;8.13;;;;;;;21.08;39.25;97901.50;10250095;28;20729;-65
2023/10/19 07:11:29;;;;;;;8.93;7.87;;;;;;;21.26;38.65;97900.59;10245783;28;20766;-66
2023/10/19 07:16:31;;;;;;;9.80;8.00;;;;;;;21.18;38.98;97877.63;10247783;28;20250;-68
2023/10/19 07:21:35;;;;;;;9.60;8.27;;;;;;;21.70;38.76;97861.09;10250133;28;20363;-66
2023/10/19 07:26:51;;;;;;;8.87;7.70;;;;;;;21.38;39.17;97883.81;10244764;28;20626;-66
2023/10/19 07:31:55;;;;;;;13.70;9.33;;;;;;;20.03;40.30;97962.28;10250169;28;20233;-65
2023/10/19 07:36:59;;;;;;;33.27;13.37;;;;;;;18.50;43.57;97865.97;10248747;28;20235;-65
2023/10/19 07:42:01;;;;;;;61.33;13.83;;;;;;;18.76;42.51;97895.53;10246228;28;20595;-65
2023/10/19 07:47:02;;;;;;;14.77;9.70;;;;;;;20.69;40.22;97836.34;10244969;28;20370;-65
2023/10/19 07:52:08;;;;;;;13.47;9.00;;;;;;;20.86;40.14;97830.38;10249498;28;20239;-65
2023/10/19 07:57:12;;;;;;;11.07;8.40;;;;;;;21.70;39.26;97825.72;10247408;28;20238;-66
2023/10/19 08:02:14;;;;;;;11.43;8.47;;;;;;;22.40;38.88;97785.41;10245986;28;20278;-66
2023/10/19 08:07:17;;;;;;;11.30;8.53;;;;;;;21.40;39.47;97836.13;10220744;28;20261;-65
2023/10/19 08:12:18;;;;;;;10.10;9.00;;;;;;;20.72;41.70;97820.56;10221866;28;20223;-64
2023/10/19 08:17:21;;;;;;;10.03;8.47;;;;;;;19.78;42.49;97869.25;10248004;28;20374;-64
2023/10/19 08:22:23;;;;;;;14.30;12.40;;;;;;;20.45;42.57;97782.19;10242191;28;20710;-65
2023/10/19 08:27:25;;;;;;;27.37;21.57;;;;;;;19.45;44.19;97814.88;10213635;28;20239;-64
2023/10/19 08:32:27;;;;;;;21.27;15.40;;;;;;;20.15;43.59;97769.09;10197945;28;20242;-65
2023/10/19 08:37:29;;;;;;;57.20;39.43;;;;;;;20.10;42.99;97803.34;10240122;28;20238;-65
2023/10/19 08:42:30;;;;;;;70.17;47.40;;;;;;;20.12;43.05;97813.91;10237367;28;20246;-65
2023/10/19 08:47:32;;;;;;;24.67;19.13;;;;;;;19.20;45.57;97776.13;10241065;28;20235;-65
2023/10/19 08:52:36;;;;;;;23.90;18.67;;;;;;;19.35;45.25;97739.03;10235434;28;20727;-65
2023/10/19 08:57:38;;;;;;;21.47;16.07;;;;;;;21.34;42.37;97686.91;10243260;28;20216;-65
2023/10/19 09:02:40;;;;;;;32.53;26.27;;;;;;;20.18;43.49;97784.84;10211200;28;20231;-65
2023/10/19 09:07:42;;;;;;;23.87;20.37;;;;;;;20.80;43.88;97700.31;10213002;28;20370;-64
2023/10/19 09:12:43;;;;;;;22.43;16.17;;;;;;;20.64;44.16;97741.34;10217433;28;20235;-65
2023/10/19 09:17:46;;;;;;;31.63;23.43;;;;;;;19.25;46.05;97799.66;10193715;28;20308;-65
2023/10/19 09:22:48;;;;;;;18.90;14.17;;;;;;;20.79;44.52;97704.16;10233026;28;20240;-65
2023/10/19 09:27:51;;;;;;;19.40;16.20;;;;;;;22.16;42.12;97690.44;10218889;28;20224;-65
2023/10/19 09:32:55;;;;;;;20.33;13.33;;;;;;;22.19;42.55;97719.75;10238874;28;20227;-65
2023/10/19 09:37:57;;;;;;;16.50;13.40;;;;;;;22.14;42.12;97742.47;10215274;28;20231;-65
2023/10/19 09:43:06;;;;;;;16.63;12.30;;;;;;;22.27;42.16;97708.13;10236335;28;20285;-65
2023/10/19 09:48:08;;;;;;;15.23;11.97;;;;;;;21.47;43.66;97734.28;10235418;28;20297;-65
2023/10/19 09:53:11;;;;;;;17.33;11.57;;;;;;;22.54;42.38;97698.16;10236852;28;20277;-65
2023/10/19 09:58:17;;;;;;;16.57;10.90;;;;;;;22.70;41.43;97704.00;10261269;28;20235;-65
2023/10/19 10:03:52;;;;;;;14.60;10.50;;;;;;;22.21;41.72;97744.75;10241001;28;20249;-65
2023/10/19 10:08:56;;;;;;;13.47;10.60;;;;;;;22.60;41.32;97754.13;10252110;28;20345;-65
2023/10/19 10:13:58;;;;;;;12.97;11.13;;;;;;;22.81;41.42;97764.50;10243857;28;20236;-65
2023/10/19 10:19:00;;;;;;;14.10;12.03;;;;;;;21.75;43.29;97778.53;10249658;28;20242;-65
2023/10/19 10:24:04;;;;;;;15.53;10.27;;;;;;;23.08;41.33;97708.94;10244151;28;20266;-65
2023/10/19 10:29:21;;;;;;;13.30;10.30;;;;;;;21.90;42.68;97813.56;10244891;28;20238;-65
2023/10/19 10:34:38;;;;;;;12.47;10.50;;;;;;;22.73;41.24;97746.97;10230564;28;20272;-65
2023/10/19 10:39:44;;;;;;;18.27;11.60;;;;;;;23.05;41.59;97766.81;10243789;28;20227;-64
2023/10/19 10:44:49;;;;;;;13.47;10.10;;;;;;;23.02;40.79;97734.72;10241254;28;20247;-64
2023/10/19 10:49:58;;;;;;;13.80;10.40;;;;;;;22.16;42.42;97715.72;10237975;28;20231;-65
2023/10/19 10:55:16;;;;;;;13.47;10.60;;;;;;;21.78;43.46;97721.56;10208981;28;20338;-65
2023/10/19 11:06:13;;;;;;;15.17;12.23;;;;;;;17.30;52.19;97587.66;10561280;27;20736;-66
2023/10/19 11:11:15;;;;;;;16.30;12.43;;;;;;;18.02;50.88;97562.69;10492838;28;20219;-65
2023/10/19 11:16:23;;;;;;;12.37;10.00;;;;;;;18.24;50.71;97583.81;10487740;28;20321;-65
2023/10/19 11:21:25;;;;;;;13.93;10.77;;;;;;;18.89;49.60;97558.06;10494381;28;20312;-66
2023/10/19 11:26:26;;;;;;;14.23;10.80;;;;;;;18.62;50.63;97589.31;10482678;28;20259;-65
2023/10/19 11:31:37;;;;;;;14.47;11.40;;;;;;;18.54;51.76;97535.81;10496459;28;20318;-66
2023/10/19 11:36:39;;;;;;;16.20;12.23;;;;;;;17.69;52.10;97670.66;10484861;28;20231;-66
2023/10/19 11:41:41;;;;;;;15.47;11.83;;;;;;;18.85;51.00;97633.72;10484231;28;20960;-66
2023/10/19 11:46:43;;;;;;;16.73;12.43;;;;;;;18.30;51.50;97650.34;10485758;28;20230;-66
2023/10/19 11:51:46;;;;;;;13.93;11.23;;;;;;;18.26;51.81;97700.72;10535220;28;20245;-66
2023/10/19 11:56:48;;;;;;;17.27;11.63;;;;;;;18.57;51.92;97619.19;10538209;28;20716;-66
2023/10/19 12:01:50;;;;;;;17.77;13.40;;;;;;;16.56;56.01;97645.03;10535569;28;20238;-66
2023/10/19 12:06:53;;;;;;;19.43;13.70;;;;;;;18.34;53.07;97551.25;10540451;28;20281;-66
2023/10/19 12:11:54;;;;;;;19.70;13.67;;;;;;;17.72;53.54;97676.31;10527579;28;20301;-66
2023/10/19 12:17:00;;;;;;;19.50;13.23;;;;;;;16.58;56.41;97663.66;10519042;28;20233;-66
2023/10/19 12:22:02;;;;;;;20.73;14.20;;;;;;;16.55;56.33;97661.50;10504238;28;20292;-66
2023/10/19 12:27:04;;;;;;;19.40;13.90;;;;;;;17.58;53.71;97623.13;10509063;28;20324;-66
2023/10/19 12:32:06;;;;;;;18.30;13.13;;;;;;;17.62;55.20;97567.38;10507583;28;20229;-66
2023/10/19 12:37:10;;;;;;;18.53;12.17;;;;;;;19.46;51.41;97594.06;10501917;28;20728;-66
2023/10/19 12:42:11;;;;;;;17.57;12.97;;;;;;;18.28;52.08;97736.44;10510410;28;20297;-66
2023/10/19 12:47:13;;;;;;;19.63;11.67;;;;;;;19.57;50.70;97646.28;10506677;28;20240;-67
2023/10/19 12:52:15;;;;;;;14.30;11.53;;;;;;;19.26;51.24;97686.59;10507111;28;20573;-66
2023/10/19 12:57:18;;;;;;;14.83;10.83;;;;;;;18.33;52.58;97733.72;10517563;28;20231;-66
2023/10/19 13:02:20;;;;;;;14.07;10.30;;;;;;;19.14;51.64;97647.16;10519631;28;20237;-66
2023/10/19 13:07:25;;;;;;;15.37;10.97;;;;;;;19.71;50.38;97676.16;10512554;28;20601;-66
2023/10/19 13:12:27;;;;;;;13.20;10.23;;;;;;;19.35;50.41;97729.03;10503480;28;20313;-66
2023/10/19 13:17:28;;;;;;;14.73;10.47;;;;;;;19.34;51.86;97689.44;10493247;28;20325;-66
2023/10/19 13:22:33;;;;;;;13.17;10.17;;;;;;;19.88;50.03;97729.91;10448778;28;20876;-66
2023/10/19 13:27:35;;;;;;;13.77;10.63;;;;;;;19.72;50.23;97689.44;10497108;28;20227;-66
2023/10/19 13:32:38;;;;;;;13.43;11.37;;;;;;;20.57;49.74;97650.50;10506837;28;20282;-66
2023/10/19 13:37:39;;;;;;;14.53;10.40;;;;;;;20.03;49.67;97631.13;10486377;28;20317;-66
2023/10/19 13:42:46;;;;;;;15.67;11.03;;;;;;;18.93;51.65;97648.53;10501718;28;20646;-66
2023/10/19 13:47:49;;;;;;;20.77;12.60;;;;;;;19.12;53.12;97578.88;10485996;28;20228;-66
2023/10/19 13:52:52;;;;;;;15.30;12.57;;;;;;;19.55;52.02;97597.75;10501461;28;20238;-66
2023/10/19 13:57:55;;;;;;;17.93;13.50;;;;;;;19.71;51.15;97665.31;10537130;28;20233;-66
2023/10/19 14:02:58;;;;;;;15.63;11.93;;;;;;;20.30;49.59;97635.81;10535700;28;20254;-66
2023/10/19 14:08:00;;;;;;;21.23;13.43;;;;;;;20.76;49.17;97609.59;10521632;27;20234;-65
2023/10/19 14:13:05;;;;;;;17.23;12.87;;;;;;;19.98;50.27;97571.50;10536409;28;20280;-66
2023/10/19 14:18:07;;;;;;;21.97;13.43;;;;;;;18.52;52.39;97657.16;10519726;28;20261;-66
2023/10/19 14:23:10;;;;;;;18.73;14.70;;;;;;;18.56;52.32;97641.97;10493968;28;20228;-66
2023/10/19 14:28:12;;;;;;;23.27;14.40;;;;;;;20.46;50.14;97536.63;10479971;28;20593;-64
2023/10/19 14:33:14;;;;;;;19.03;13.80;;;;;;;18.59;52.93;97582.59;10503836;28;20241;-65
2023/10/19 14:38:15;;;;;;;22.67;15.03;;;;;;;18.67;52.88;97529.66;10521249;28;20277;-64
2023/10/19 14:43:17;;;;;;;25.77;16.33;;;;;;;18.06;54.42;97542.88;10474512;28;20227;-64
2023/10/19 14:48:19;;;;;;;27.03;21.43;;;;;;;18.77;53.19;97474.53;10505672;28;20639;-71
2023/10/19 14:53:21;;;;;;;20.17;14.90;;;;;;;19.15;52.32;97483.44;10526817;27;20635;-70
2023/10/19 14:58:25;;;;;;;29.97;20.23;;;;;;;18.61;53.98;97482.09;10522829;28;20257;-71
2023/10/19 15:03:28;;;;;;;29.37;20.17;;;;;;;20.76;49.02;97481.88;10479261;28;20241;-73
2023/10/19 15:08:31;;;;;;;19.17;15.77;;;;;;;19.53;51.72;97502.28;10539375;28;20237;-73
2023/10/19 15:13:33;;;;;;;17.07;12.50;;;;;;;20.33;49.50;97488.56;10537150;28;20230;-72
2023/10/19 15:18:36;;;;;;;16.10;12.13;;;;;;;20.44;48.56;97536.09;10519445;28;20227;-71
2023/10/19 15:23:37;;;;;;;18.47;12.20;;;;;;;20.38;49.78;97484.91;10506197;28;20282;-71
2023/10/19 15:28:39;;;;;;;18.83;12.73;;;;;;;21.13;47.81;97485.38;10522264;28;20236;-72
2023/10/19 15:33:41;;;;;;;18.40;14.07;;;;;;;20.28;49.85;97502.25;10540270;28;20234;-71
2023/10/19 15:38:43;;;;;;;18.63;12.90;;;;;;;19.45;51.92;97459.59;10530390;28;20262;-71
2023/10/19 15:43:44;;;;;;;16.60;12.93;;;;;;;20.28;49.95;97448.72;10518503;28;20237;-71
2023/10/19 15:48:46;;;;;;;15.17;11.70;;;;;;;19.76;50.79;97478.03;10502003;28;20293;-71
2023/10/19 15:53:48;;;;;;;18.60;12.40;;;;;;;20.42;49.71;97485.91;10516980;28;20233;-71
2023/10/19 15:58:49;;;;;;;16.00;11.43;;;;;;;20.09;50.68;97448.03;10513564;27;20796;-71
2023/10/19 16:03:51;;;;;;;16.07;11.53;;;;;;;19.20;51.79;97504.22;10539789;27;20325;-70
2023/10/19 16:08:53;;;;;;;14.70;11.43;;;;;;;21.26;48.26;97446.41;10535580;28;20740;-67
2023/10/19 16:13:55;;;;;;;15.97;10.80;;;;;;;19.68;51.02;97497.72;10522635;27;20226;-67
2023/10/19 16:18:56;;;;;;;17.03;12.63;;;;;;;18.50;53.43;97505.78;10553645;27;20231;-70
2023/10/19 16:23:58;;;;;;;16.23;12.73;;;;;;;18.88;52.98;97423.69;10557348;27;20317;-70
2023/10/19 16:29:05;;;;;;;19.70;13.50;;;;;;;19.60;51.79;97406.19;10530906;28;20319;-70
2023/10/19 16:34:08;;;;;;;19.47;13.50;;;;;;;20.79;49.28;97424.22;10530333;27;20249;-71
2023/10/19 16:39:15;;;;;;;19.47;14.53;;;;;;;19.46;52.12;97449.53;10519985;27;20282;-68
2023/10/19 16:44:17;;;;;;;18.80;14.30;;;;;;;18.81;52.59;97513.47;10544283;28;20412;-68
2023/10/19 16:49:19;;;;;;;23.63;14.50;;;;;;;20.29;51.03;97436.78;10529088;28;20802;-68
2023/10/19 16:54:21;;;;;;;25.57;15.93;;;;;;;17.77;54.90;97525.91;10503120;28;20279;-67
2023/10/19 16:59:23;;;;;;;20.57;14.90;;;;;;;18.83;53.26;97457.91;10509798;28;20250;-65
2023/10/19 17:04:25;;;;;;;19.57;13.63;;;;;;;18.48;53.56;97515.31;10481734;28;20254;-68
2023/10/19 17:09:27;;;;;;;19.47;13.13;;;;;;;20.05;51.04;97495.91;10520016;27;20248;-70
2023/10/19 17:14:29;;;;;;;21.30;14.70;;;;;;;18.43;54.28;97486.41;10532476;27;20773;-69
2023/10/19 17:19:31;;;;;;;18.00;13.83;;;;;;;19.01;52.71;97504.25;10497191;28;20234;-69
2023/10/19 17:24:33;;;;;;;19.23;12.67;;;;;;;21.90;46.91;97480.63;10530520;27;20376;-67
2023/10/19 17:29:34;;;;;;;20.63;15.10;;;;;;;20.41;48.68;97552.19;10547262;27;20222;-70
2023/10/19 17:34:36;;;;;;;18.97;14.53;;;;;;;18.21;53.71;97541.88;10509519;28;20233;-69
2023/10/19 17:39:38;;;;;;;18.97;13.77;;;;;;;19.46;50.94;97528.19;10543533;28;20715;-69
2023/10/19 17:44:40;;;;;;;21.33;14.43;;;;;;;18.21;54.10;97463.38;10544277;27;20290;-69
2023/10/19 17:49:42;;;;;;;21.60;13.90;;;;;;;19.07;52.52;97429.09;10541764;27;20817;-69
2023/10/19 17:54:44;;;;;;;21.00;14.23;;;;;;;18.59;53.24;97460.72;10520748;28;20786;-71
2023/10/19 17:59:46;;;;;;;18.47;13.33;;;;;;;18.52;53.09;97492.75;10543432;28;20299;-65
2023/10/19 18:04:49;;;;;;;22.07;15.43;;;;;;;19.07;52.04;97484.09;10543956;27;20642;-66
2023/10/19 18:09:52;;;;;;;20.73;13.63;;;;;;;21.20;48.30;97415.03;10543798;27;20234;-65
2023/10/19 18:14:54;;;;;;;20.20;12.90;;;;;;;20.82;48.56;97454.31;10539532;28;20227;-65
2023/10/19 18:19:56;;;;;;;46.23;13.90;;;;;;;20.99;47.82;97455.53;10547087;28;20736;-68
2023/10/19 18:24:58;;;;;;;18.37;11.80;;;;;;;21.40;47.32;97444.41;10538010;28;20785;-69
2023/10/19 18:29:59;;;;;;;96.47;16.13;;;;;;;18.74;52.64;97440.72;10540621;28;20317;-68
2023/10/19 18:35:01;;;;;;;18.73;11.90;;;;;;;20.61;49.42;97420.56;10537775;28;20226;-66
2023/10/19 18:40:03;;;;;;;12.37;9.23;;;;;;;21.64;46.87;97407.06;10542767;28;20653;-69
2023/10/19 18:45:05;;;;;;;23.07;8.93;;;;;;;20.69;48.59;97439.63;10539153;27;20221;-69
2023/10/19 18:50:08;;;;;;;40.90;9.43;;;;;;;22.28;45.87;97384.75;10538201;27;20317;-67
2023/10/19 18:55:25;;;;;;;61.37;15.53;;;;;;;21.34;47.47;97418.47;10537098;28;20240;-70
2023/10/19 19:00:26;;;;;;;56.53;14.67;;;;;;;21.19;48.28;97375.38;10540216;28;20230;-67
2023/10/19 19:05:30;;;;;;;51.47;11.87;;;;;;;20.58;49.18;97413.84;10535655;28;20217;-66
2023/10/19 19:10:32;;;;;;;50.73;10.70;;;;;;;20.57;49.62;97376.13;10532552;28;20701;-66
2023/10/19 19:15:35;;;;;;;14.70;8.60;;;;;;;21.89;45.86;97427.31;10514332;28;20988;-69
2023/10/19 19:20:40;;;;;;;10.23;8.17;;;;;;;21.73;46.48;97435.13;10537007;28;20316;-69
2023/10/19 19:25:44;;;;;;;14.47;9.83;;;;;;;20.30;49.42;97421.28;10541982;27;20231;-68
2023/10/19 19:30:47;;;;;;;68.77;13.73;;;;;;;19.84;50.56;97403.22;10543491;27;20226;-68
2023/10/19 19:35:49;;;;;;;119.97;20.80;;;;;;;20.83;48.43;97384.44;10539561;27;20317;-68
2023/10/19 19:40:53;;;;;;;16.47;11.53;;;;;;;20.80;47.80;97423.94;10540626;27;20317;-69
2023/10/19 19:45:55;;;;;;;35.13;9.53;;;;;;;21.39;46.97;97409.38;10529428;27;20238;-71
2023/10/19 19:50:57;;;;;;;39.50;9.10;;;;;;;20.07;49.66;97385.91;10557630;28;20226;-68
2023/10/19 19:56:00;;;;;;;47.87;9.13;;;;;;;20.57;49.82;97287.25;10526079;28;20234;-68
2023/10/19 20:01:01;;;;;;;29.57;9.10;;;;;;;20.50;48.51;97352.09;10535301;28;20306;-68
2023/10/19 20:06:03;;;;;;;38.43;10.93;;;;;;;19.14;51.56;97283.16;10534321;27;20254;-66
2023/10/19 20:11:06;;;;;;;36.50;10.73;;;;;;;17.32;54.73;97355.75;10537039;28;20227;-72
2023/10/19 20:16:07;;;;;;;67.27;12.90;;;;;;;18.73;53.19;97273.88;10538862;28;20727;-64
2023/10/19 20:21:09;;;;;;;53.77;11.17;;;;;;;19.90;49.28;97331.47;10540758;27;20226;-66
2023/10/19 20:26:14;;;;;;;12.53;7.83;;;;;;;18.83;52.46;97287.22;10531332;27;20234;-66
2023/10/19 20:31:16;;;;;;;12.40;8.73;;;;;;;19.32;52.61;97192.75;10538936;28;20243;-65
2023/10/19 20:36:18;;;;;;;9.93;7.83;;;;;;;18.74;53.68;97185.28;10531539;28;20322;-65
2023/10/19 20:41:21;;;;;;;12.00;8.43;;;;;;;20.27;50.26;97196.53;10534095;28;20258;-66
2023/10/19 20:46:23;;;;;;;13.00;9.13;;;;;;;21.27;48.37;97192.38;10528155;27;20234;-66
2023/10/19 20:51:25;;;;;;;10.43;8.00;;;;;;;19.86;50.26;97263.44;10534875;27;20230;-66
2023/10/19 20:56:26;;;;;;;10.73;7.80;;;;;;;18.24;52.86;97261.72;10535001;27;20229;-65
2023/10/19 21:01:28;;;;;;;9.07;7.00;;;;;;;18.17;53.41;97272.09;10538627;28;20227;-65
2023/10/19 21:06:32;;;;;;;10.03;7.30;;;;;;;21.21;48.74;97180.06;10534247;28;20292;-66
2023/10/19 21:11:34;;;;;;;11.83;7.07;;;;;;;18.88;51.87;97244.88;10517152;28;20542;-66
2023/10/19 21:16:36;;;;;;;13.13;9.17;;;;;;;19.33;52.03;97155.59;10537902;27;20303;-66
2023/10/19 21:21:38;;;;;;;14.27;8.87;;;;;;;18.89;51.69;97220.19;10536736;28;20230;-66
2023/10/19 21:26:40;;;;;;;9.60;7.20;;;;;;;20.57;49.46;97159.59;10527318;28;20231;-66
2023/10/19 21:31:43;;;;;;;10.47;7.40;;;;;;;18.29;52.16;97229.19;10533524;28;20755;-66
2023/10/19 21:36:45;;;;;;;12.77;8.83;;;;;;;17.62;55.27;97091.50;10528882;28;20230;-65
2023/10/19 21:41:49;;;;;;;12.50;8.10;;;;;;;20.49;49.04;97111.47;10536355;28;20222;-66
2023/10/19 21:46:51;;;;;;;15.63;9.00;;;;;;;17.54;54.32;97164.06;10531433;27;20644;-66
2023/10/19 21:51:53;;;;;;;10.77;8.67;;;;;;;17.85;53.55;97160.06;10522026;27;20222;-66
2023/10/19 21:56:54;;;;;;;10.07;8.27;;;;;;;17.80;53.84;97160.97;10535501;27;20226;-65
2023/10/19 22:01:59;;;;;;;22.67;12.50;;;;;;;17.96;54.91;97047.88;10541847;27;20269;-66
2023/10/19 22:07:02;;;;;;;13.33;8.43;;;;;;;19.40;52.00;97047.53;10519878;28;20231;-66
2023/10/19 22:12:04;;;;;;;12.63;8.00;;;;;;;17.76;54.33;97080.72;10536773;28;20238;-66
2023/10/19 22:17:05;;;;;;;11.90;8.63;;;;;;;17.21;55.79;97047.00;10535725;28;20768;-66
2023/10/19 22:22:07;;;;;;;19.07;15.13;;;;;;;16.72;57.65;97021.22;10537011;28;20236;-66
2023/10/19 22:27:09;;;;;;;21.53;16.40;;;;;;;18.22;53.08;97087.97;10535637;28;20288;-66
2023/10/19 22:32:10;;;;;;;15.33;10.83;;;;;;;17.46;54.69;97074.69;10536239;28;20248;-66
2023/10/19 22:37:12;;;;;;;14.63;9.67;;;;;;;20.45;49.68;96994.50;10521806;27;20230;-65
2023/10/19 22:42:15;;;;;;;11.83;8.60;;;;;;;18.00;53.50;97051.63;10545518;27;20370;-66
2023/10/19 22:47:17;;;;;;;10.97;8.73;;;;;;;19.91;49.22;97061.72;10536048;27;20313;-65
2023/10/19 22:52:18;;;;;;;11.83;8.77;;;;;;;20.45;49.27;97004.59;10541830;27;20253;-66
2023/10/19 22:57:20;;;;;;;12.17;8.83;;;;;;;18.28;52.68;97033.47;10539735;28;20316;-65
2023/10/19 23:02:22;;;;;;;10.07;7.97;;;;;;;18.54;52.18;97042.97;10537630;28;20961;-66
2023/10/19 23:07:24;;;;;;;11.73;8.00;;;;;;;19.69;50.47;97013.75;10535067;28;20325;-65
2023/10/19 23:12:27;;;;;;;11.13;8.07;;;;;;;18.34;52.37;97041.50;10541079;28;20223;-65
2023/10/19 23:17:31;;;;;;;13.27;8.53;;;;;;;19.52;51.57;96979.97;10533082;28;20252;-66
2023/10/19 23:22:35;;;;;;;12.00;8.40;;;;;;;20.11;49.97;96987.09;10518836;28;20230;-66